createdAt,value
2018-12-31T00:02:10.653Z,4.50
2018-12-31T00:04:41.564Z,4.50
2018-12-31T00:07:13.262Z,4.50
2018-12-31T00:09:44.603Z,4.50
2018-12-31T00:12:15.252Z,4.50
2018-12-31T00:14:45.975Z,4.50
2018-12-31T00:17:16.606Z,4.50
2018-12-31T00:19:47.264Z,4.40
2018-12-31T00:22:17.910Z,4.40
2018-12-31T00:24:48.608Z,4.40
2018-12-31T00:27:19.304Z,4.40
2018-12-31T00:29:49.988Z,4.40
2018-12-31T00:32:20.636Z,4.60
2018-12-31T00:34:51.317Z,4.50
2018-12-31T00:37:21.992Z,4.40
2018-12-31T00:39:52.694Z,4.50
2018-12-31T00:42:23.309Z,4.40
2018-12-31T00:44:53.973Z,4.40
2018-12-31T00:47:24.671Z,4.40
2018-12-31T00:49:55.393Z,4.40
2018-12-31T00:52:26.078Z,4.40
2018-12-31T00:54:56.738Z,4.40
2018-12-31T00:57:27.406Z,4.40
2018-12-31T00:59:58.081Z,4.40
2018-12-31T01:02:28.781Z,4.40
2018-12-31T01:05:00.277Z,4.30
2018-12-31T01:07:30.944Z,4.30
2018-12-31T01:10:01.629Z,4.30
2018-12-31T01:12:32.327Z,4.30
2018-12-31T01:15:02.947Z,4.40
2018-12-31T01:17:33.643Z,4.40
2018-12-31T01:20:04.328Z,4.40
2018-12-31T01:22:35.914Z,4.40
2018-12-31T01:25:08.292Z,4.30
2018-12-31T01:27:39.341Z,4.30
2018-12-31T01:30:11.003Z,4.30
2018-12-31T01:32:41.736Z,4.30
2018-12-31T01:35:12.801Z,4.30
2018-12-31T01:37:43.689Z,4.30
2018-12-31T01:40:14.918Z,4.30
2018-12-31T01:42:45.599Z,4.30
2018-12-31T01:45:16.264Z,4.30
2018-12-31T01:47:46.955Z,4.30
2018-12-31T01:50:17.625Z,4.30
2018-12-31T01:52:48.252Z,4.30
2018-12-31T01:55:19.093Z,4.30
2018-12-31T01:57:49.756Z,4.30
2018-12-31T02:00:20.409Z,4.30
2018-12-31T02:02:51.072Z,4.30
2018-12-31T02:05:21.729Z,4.30
2018-12-31T02:07:52.389Z,4.20
2018-12-31T02:10:23.031Z,4.30
2018-12-31T02:12:53.735Z,4.20
2018-12-31T02:15:24.378Z,4.20
2018-12-31T02:17:55.047Z,4.20
2018-12-31T02:20:25.708Z,4.20
2018-12-31T02:22:56.347Z,4.10
2018-12-31T02:25:27.002Z,4.20
2018-12-31T02:27:57.744Z,4.10
2018-12-31T02:30:28.461Z,4.00
2018-12-31T02:33:00.045Z,4.00
2018-12-31T02:35:30.719Z,3.90
2018-12-31T02:38:01.496Z,3.80
2018-12-31T02:40:32.798Z,3.80
2018-12-31T02:43:03.498Z,3.80
2018-12-31T02:45:34.148Z,3.70
2018-12-31T02:48:04.898Z,3.70
2018-12-31T02:50:35.643Z,3.70
2018-12-31T02:53:06.400Z,3.70
2018-12-31T02:55:37.466Z,3.70
2018-12-31T02:58:08.115Z,3.70
2018-12-31T03:00:39.313Z,3.70
2018-12-31T03:03:09.994Z,3.60
2018-12-31T03:05:40.645Z,3.70
2018-12-31T03:08:11.752Z,3.60
2018-12-31T03:10:42.401Z,3.60
2018-12-31T03:13:13.089Z,3.60
2018-12-31T03:15:44.184Z,3.60
2018-12-31T03:18:14.831Z,3.60
2018-12-31T03:20:45.497Z,3.60
2018-12-31T03:23:16.185Z,3.60
2018-12-31T03:25:46.958Z,3.60
2018-12-31T03:28:17.660Z,3.50
2018-12-31T03:30:48.350Z,3.50
2018-12-31T03:33:18.984Z,3.50
2018-12-31T03:35:49.682Z,3.50
2018-12-31T03:38:20.387Z,3.40
2018-12-31T03:40:51.064Z,3.50
2018-12-31T03:43:21.791Z,3.40
2018-12-31T03:45:52.527Z,3.40
2018-12-31T03:48:23.199Z,3.40
2018-12-31T03:50:53.926Z,3.30
2018-12-31T03:53:24.605Z,3.30
2018-12-31T03:55:55.290Z,3.20
2018-12-31T03:58:25.976Z,3.30
2018-12-31T04:00:56.645Z,3.20
2018-12-31T04:03:27.310Z,3.30
2018-12-31T04:05:57.983Z,3.20
2018-12-31T04:08:28.650Z,3.20
2018-12-31T04:10:59.315Z,3.20
2018-12-31T04:13:29.971Z,3.20
2018-12-31T04:16:00.603Z,3.20
2018-12-31T04:18:31.378Z,3.10
2018-12-31T04:21:02.019Z,3.10
2018-12-31T04:23:32.694Z,3.10
2018-12-31T04:26:03.499Z,3.10
2018-12-31T04:28:34.579Z,3.10
2018-12-31T04:31:05.279Z,3.00
2018-12-31T04:33:35.958Z,3.00
2018-12-31T04:36:06.615Z,2.90
2018-12-31T04:38:37.379Z,3.00
2018-12-31T04:41:08.627Z,2.90
2018-12-31T04:43:39.383Z,2.90
2018-12-31T04:46:14.680Z,2.80
2018-12-31T04:48:45.548Z,2.70
2018-12-31T04:51:18.194Z,2.70
2018-12-31T04:53:48.796Z,2.70
2018-12-31T04:56:19.459Z,2.70
2018-12-31T04:58:50.085Z,2.60
2018-12-31T05:01:20.769Z,2.60
2018-12-31T05:03:51.431Z,2.60
2018-12-31T05:06:22.182Z,2.60
2018-12-31T05:08:52.840Z,2.60
2018-12-31T05:11:24.051Z,2.50
2018-12-31T05:13:54.661Z,2.50
2018-12-31T05:16:25.980Z,2.50
2018-12-31T05:18:56.651Z,2.60
2018-12-31T05:21:27.366Z,2.60
2018-12-31T05:23:58.039Z,2.50
2018-12-31T05:26:29.001Z,2.60
2018-12-31T05:28:59.631Z,2.60
2018-12-31T05:31:30.310Z,2.60
2018-12-31T05:34:00.998Z,2.60
2018-12-31T05:36:31.689Z,2.50
2018-12-31T05:39:02.335Z,2.50
2018-12-31T05:41:33.047Z,2.50
2018-12-31T05:44:03.723Z,2.50
2018-12-31T05:46:34.922Z,2.50
2018-12-31T05:49:05.595Z,2.50
2018-12-31T05:51:36.340Z,2.40
2018-12-31T05:54:07.043Z,2.40
2018-12-31T05:56:37.716Z,2.40
2018-12-31T05:59:08.381Z,2.40
2018-12-31T06:01:39.633Z,2.40
2018-12-31T06:04:10.339Z,2.40
2018-12-31T06:06:42.334Z,2.40
2018-12-31T06:09:13.034Z,2.40
2018-12-31T06:11:45.513Z,2.40
2018-12-31T06:14:16.295Z,2.40
2018-12-31T06:16:47.204Z,2.40
2018-12-31T06:19:17.919Z,2.40
2018-12-31T06:21:48.644Z,2.40
2018-12-31T06:24:19.323Z,2.50
2018-12-31T06:26:49.954Z,2.50
2018-12-31T06:29:20.630Z,2.50
2018-12-31T06:31:51.256Z,2.50
2018-12-31T06:34:21.985Z,2.60
2018-12-31T06:36:52.653Z,2.50
2018-12-31T06:39:23.344Z,2.50
2018-12-31T06:41:54.578Z,2.50
2018-12-31T06:44:25.296Z,2.60
2018-12-31T06:46:56.054Z,2.50
2018-12-31T06:49:26.735Z,2.50
2018-12-31T06:51:57.428Z,2.50
2018-12-31T06:54:28.090Z,2.50
2018-12-31T06:56:58.761Z,2.50
2018-12-31T06:59:29.463Z,2.50
2018-12-31T07:02:00.121Z,2.50
2018-12-31T07:04:30.921Z,2.50
2018-12-31T07:07:01.611Z,2.50
2018-12-31T07:09:33.215Z,2.40
2018-12-31T07:12:03.943Z,2.40
2018-12-31T07:14:36.255Z,2.40
2018-12-31T07:17:07.010Z,2.40
2018-12-31T07:19:40.458Z,2.40
2018-12-31T07:22:11.242Z,2.50
2018-12-31T07:24:43.042Z,2.40
2018-12-31T07:27:13.705Z,2.50
2018-12-31T07:29:44.410Z,2.40
2018-12-31T07:32:15.141Z,2.40
2018-12-31T07:34:45.858Z,2.40
2018-12-31T07:37:16.495Z,2.50
2018-12-31T07:39:47.272Z,2.50
2018-12-31T07:42:17.984Z,2.60
2018-12-31T07:44:48.737Z,2.60
2018-12-31T07:47:21.172Z,2.70
2018-12-31T07:49:51.849Z,2.80
2018-12-31T07:52:22.528Z,3.00
2018-12-31T07:54:53.237Z,3.00
2018-12-31T07:57:23.872Z,3.20
2018-12-31T07:59:54.541Z,3.30
2018-12-31T08:02:25.206Z,3.40
2018-12-31T08:04:55.968Z,3.50
2018-12-31T08:07:26.650Z,3.60
2018-12-31T08:09:57.377Z,3.70
2018-12-31T08:12:28.079Z,3.80
2018-12-31T08:14:58.748Z,3.80
2018-12-31T08:17:29.440Z,4.00
2018-12-31T08:20:00.261Z,4.00
2018-12-31T08:22:30.925Z,4.00
2018-12-31T08:25:01.694Z,4.00
2018-12-31T08:27:32.419Z,4.10
2018-12-31T08:30:03.072Z,4.20
2018-12-31T08:32:33.803Z,4.20
2018-12-31T08:35:04.488Z,4.30
2018-12-31T08:37:35.760Z,4.20
2018-12-31T08:40:06.466Z,4.30
2018-12-31T08:42:37.852Z,4.40
2018-12-31T08:45:08.713Z,4.40
2018-12-31T08:47:40.264Z,4.40
2018-12-31T08:50:11.039Z,4.40
2018-12-31T08:52:42.557Z,4.40
2018-12-31T08:55:13.338Z,4.40
2018-12-31T08:57:46.020Z,4.40
2018-12-31T09:00:16.756Z,4.50
2018-12-31T09:02:47.580Z,4.40
2018-12-31T09:05:18.351Z,4.50
2018-12-31T09:07:49.196Z,4.50
2018-12-31T09:10:19.970Z,4.50
2018-12-31T09:12:50.682Z,4.40
2018-12-31T09:15:21.410Z,4.40
2018-12-31T09:17:52.080Z,4.40
2018-12-31T09:20:23.642Z,4.40
2018-12-31T09:22:54.369Z,4.40
2018-12-31T09:25:28.287Z,4.40
2018-12-31T09:27:59.043Z,4.40
2018-12-31T09:30:29.775Z,4.60
2018-12-31T09:33:00.494Z,4.60
2018-12-31T09:35:32.291Z,4.70
2018-12-31T09:38:11.224Z,4.70
2018-12-31T09:40:44.366Z,4.90
2018-12-31T09:43:20.476Z,5.00
2018-12-31T09:45:59.017Z,4.90
2018-12-31T09:48:36.418Z,4.90
2018-12-31T09:51:11.121Z,4.80
2018-12-31T09:53:48.672Z,4.80
2018-12-31T09:56:25.581Z,4.70
2018-12-31T09:58:57.077Z,4.70
2018-12-31T10:01:34.645Z,4.70
2018-12-31T10:04:06.264Z,4.70
2018-12-31T10:06:44.564Z,4.80
2018-12-31T10:09:17.011Z,5.00
2018-12-31T10:11:57.229Z,5.00
2018-12-31T10:14:36.063Z,5.00
2018-12-31T10:17:18.882Z,5.00
2018-12-31T10:19:58.723Z,5.10
2018-12-31T10:22:34.016Z,5.20
2018-12-31T10:25:10.976Z,5.30
2018-12-31T10:27:48.001Z,5.40
2018-12-31T10:30:19.868Z,5.50
2018-12-31T10:32:53.992Z,5.50
2018-12-31T10:35:30.891Z,5.50
2018-12-31T10:38:10.755Z,5.60
2018-12-31T10:40:48.659Z,5.60
2018-12-31T10:43:26.767Z,5.60
2018-12-31T10:46:10.196Z,5.70
2018-12-31T10:48:47.408Z,5.70
2018-12-31T10:51:22.384Z,5.70
2018-12-31T10:53:53.908Z,5.60
2018-12-31T10:56:29.713Z,5.50
2018-12-31T10:59:06.951Z,5.30
2018-12-31T11:04:48.140Z,5.30
2018-12-31T11:07:22.938Z,5.30
2018-12-31T11:10:00.668Z,5.40
2018-12-31T11:12:34.726Z,5.60
2018-12-31T11:15:07.467Z,5.70
2018-12-31T11:17:42.067Z,5.80
2018-12-31T11:20:19.703Z,5.50
2018-12-31T11:22:59.291Z,5.40
2018-12-31T11:25:33.472Z,5.50
2018-12-31T11:28:13.225Z,5.40
2018-12-31T11:30:48.632Z,5.40
2018-12-31T11:33:23.030Z,5.50
2018-12-31T11:35:57.346Z,5.50
2018-12-31T11:38:29.740Z,5.50
2018-12-31T11:41:08.099Z,5.50
2018-12-31T11:43:39.454Z,5.60
2018-12-31T11:46:13.621Z,5.70
2018-12-31T11:48:50.510Z,5.80
2018-12-31T11:51:21.857Z,5.70
2018-12-31T11:53:56.304Z,5.80
2018-12-31T11:56:33.742Z,5.80
2018-12-31T11:59:10.993Z,5.90
2018-12-31T12:01:43.317Z,5.90
2018-12-31T12:04:21.239Z,6.00
2018-12-31T12:06:55.708Z,5.90
2018-12-31T12:09:33.028Z,5.70
2018-12-31T12:12:07.851Z,5.80
2018-12-31T12:14:48.069Z,5.90
2018-12-31T12:17:30.921Z,6.10
2018-12-31T12:20:05.878Z,6.20
2018-12-31T12:22:42.976Z,6.10
2018-12-31T12:25:18.177Z,6.20
2018-12-31T12:27:55.742Z,6.20
2018-12-31T12:30:30.573Z,5.90
2018-12-31T12:33:07.410Z,5.90
2018-12-31T12:35:47.739Z,5.80
2018-12-31T12:38:20.083Z,5.90
2018-12-31T12:40:55.396Z,5.90
2018-12-31T12:43:32.687Z,5.80
2018-12-31T12:46:09.833Z,5.80
2018-12-31T12:48:50.108Z,6.00
2018-12-31T12:51:24.243Z,6.00
2018-12-31T12:53:58.757Z,6.00
2018-12-31T12:56:33.275Z,5.90
2018-12-31T12:59:10.734Z,5.90
2018-12-31T13:01:46.060Z,5.90
2018-12-31T13:04:23.657Z,5.90
2018-12-31T13:07:04.084Z,5.90
2018-12-31T13:09:38.118Z,5.90
2018-12-31T13:12:18.387Z,6.00
2018-12-31T13:14:52.754Z,6.00
2018-12-31T13:17:24.196Z,6.10
2018-12-31T13:19:56.231Z,6.00
2018-12-31T13:22:30.347Z,5.90
2018-12-31T13:25:01.757Z,5.80
2018-12-31T13:27:34.974Z,5.90
2018-12-31T13:30:10.483Z,5.90
2018-12-31T13:32:46.517Z,6.00
2018-12-31T13:35:21.307Z,6.10
2018-12-31T13:37:53.449Z,6.20
2018-12-31T13:40:28.337Z,6.30
2018-12-31T13:43:05.439Z,6.30
2018-12-31T13:45:42.656Z,6.20
2018-12-31T13:48:16.909Z,6.20
2018-12-31T13:50:54.244Z,6.10
2018-12-31T13:53:31.755Z,6.10
2018-12-31T13:56:05.837Z,6.00
2018-12-31T13:58:37.187Z,5.90
2018-12-31T14:01:11.290Z,5.80
2018-12-31T14:03:42.808Z,5.80
2018-12-31T14:06:17.116Z,5.90
2018-12-31T14:08:51.604Z,5.90
2018-12-31T14:11:23.946Z,5.80
2018-12-31T14:13:58.215Z,5.80
2018-12-31T14:16:29.205Z,5.70
2018-12-31T14:18:59.836Z,5.70
2018-12-31T14:21:31.244Z,5.70
2018-12-31T14:24:01.914Z,5.60
2018-12-31T14:26:32.716Z,5.60
2018-12-31T14:29:03.881Z,5.60
2018-12-31T14:31:34.662Z,5.60
2018-12-31T14:34:06.541Z,5.60
2018-12-31T14:36:38.117Z,5.50
2018-12-31T14:39:09.528Z,5.50
2018-12-31T14:41:40.189Z,5.50
2018-12-31T14:44:11.692Z,5.40
2018-12-31T14:46:42.648Z,5.40
2018-12-31T14:49:13.588Z,5.40
2018-12-31T14:51:44.729Z,5.40
2018-12-31T14:54:15.393Z,5.30
2018-12-31T14:56:46.070Z,5.30
2018-12-31T14:59:16.952Z,5.30
2018-12-31T15:01:47.722Z,5.30
2018-12-31T15:04:18.897Z,5.20
2018-12-31T15:06:49.582Z,5.20
2018-12-31T15:09:23.056Z,5.20
2018-12-31T15:11:53.729Z,5.20
2018-12-31T15:14:24.710Z,5.20
2018-12-31T15:16:55.453Z,5.20
2018-12-31T15:19:26.170Z,5.20
2018-12-31T15:21:57.271Z,5.20
2018-12-31T15:24:27.942Z,5.10
2018-12-31T15:26:58.658Z,5.10
2018-12-31T15:29:29.464Z,5.10
2018-12-31T15:32:08.970Z,5.10
2018-12-31T15:34:40.928Z,5.00
2018-12-31T15:37:11.745Z,5.00
2018-12-31T15:39:42.865Z,5.00
2018-12-31T15:42:14.100Z,5.00
2018-12-31T15:44:44.819Z,4.90
2018-12-31T15:47:15.447Z,5.00
2018-12-31T15:49:46.375Z,5.00
2018-12-31T15:52:17.068Z,5.00
2018-12-31T15:54:47.886Z,5.00
2018-12-31T15:57:18.628Z,5.00
2018-12-31T15:59:49.693Z,5.10
2018-12-31T16:02:20.414Z,5.10
2018-12-31T16:04:51.371Z,5.10
2018-12-31T16:07:22.099Z,5.00
2018-12-31T16:09:52.797Z,5.00
2018-12-31T16:12:23.645Z,5.00
2018-12-31T16:14:55.649Z,5.00
2018-12-31T16:17:26.502Z,5.00
2018-12-31T16:19:57.186Z,5.00
2018-12-31T16:22:28.515Z,5.00
2018-12-31T16:24:59.270Z,5.00
2018-12-31T16:27:30.636Z,5.00
2018-12-31T16:30:01.472Z,5.00
2018-12-31T16:32:32.733Z,5.00
2018-12-31T16:35:03.407Z,5.00
2018-12-31T16:37:37.065Z,5.10
2018-12-31T16:40:08.101Z,5.10
2018-12-31T16:42:39.226Z,5.10
2018-12-31T16:45:10.217Z,5.00
2018-12-31T16:47:41.204Z,5.10
2018-12-31T16:50:11.995Z,5.20
2018-12-31T16:52:43.368Z,5.20
2018-12-31T16:55:14.138Z,5.20
2018-12-31T16:57:44.921Z,5.20
2018-12-31T17:00:19.984Z,5.10
2018-12-31T17:02:50.698Z,5.10
2018-12-31T17:05:21.358Z,5.20
2018-12-31T17:07:52.294Z,5.20
2018-12-31T17:10:23.012Z,5.20
2018-12-31T17:12:53.709Z,5.30
2018-12-31T17:15:24.466Z,5.30
2018-12-31T17:17:56.890Z,5.30
2018-12-31T17:20:27.660Z,5.40
2018-12-31T17:22:58.350Z,5.30
2018-12-31T17:25:29.036Z,5.30
2018-12-31T17:27:59.724Z,5.30
2018-12-31T17:30:30.646Z,5.30
2018-12-31T17:33:01.576Z,5.30
2018-12-31T17:35:32.594Z,5.30
2018-12-31T17:38:03.341Z,5.40
2018-12-31T17:40:34.855Z,5.40
2018-12-31T17:43:05.552Z,5.40
2018-12-31T17:45:36.802Z,5.40
2018-12-31T17:48:07.494Z,5.40
2018-12-31T17:50:38.212Z,5.50
2018-12-31T17:53:08.857Z,5.50
2018-12-31T17:55:40.665Z,5.50
2018-12-31T17:58:11.364Z,5.40
2018-12-31T18:00:42.602Z,5.40
2018-12-31T18:03:13.282Z,5.40
2018-12-31T18:05:43.961Z,5.40
2018-12-31T18:08:15.150Z,5.50
2018-12-31T18:10:46.556Z,5.50
2018-12-31T18:13:17.275Z,5.50
2018-12-31T18:15:47.922Z,5.60
2018-12-31T18:18:18.893Z,5.60
2018-12-31T18:20:49.611Z,5.50
2018-12-31T18:23:20.379Z,5.60
2018-12-31T18:25:51.143Z,5.50
2018-12-31T18:28:21.861Z,5.50
2018-12-31T18:30:53.304Z,5.50
2018-12-31T18:33:26.747Z,5.60
2018-12-31T18:35:57.558Z,5.60
2018-12-31T18:38:28.338Z,5.60
2018-12-31T18:40:59.676Z,5.50
2018-12-31T18:43:30.425Z,5.50
2018-12-31T18:46:01.163Z,5.50
2018-12-31T18:48:32.074Z,5.50
2018-12-31T18:51:03.347Z,5.50
2018-12-31T18:53:34.075Z,5.50
2018-12-31T18:56:04.757Z,5.50
2018-12-31T18:58:36.306Z,5.50
2018-12-31T19:01:06.984Z,5.50
2018-12-31T19:03:38.657Z,5.40
2018-12-31T19:06:09.544Z,5.50
2018-12-31T19:08:40.977Z,5.50
2018-12-31T19:11:12.671Z,5.50
2018-12-31T19:13:44.715Z,5.50
2018-12-31T19:16:15.402Z,5.60
2018-12-31T19:18:46.217Z,5.50
2018-12-31T19:21:16.992Z,5.60
2018-12-31T19:23:47.718Z,5.50
2018-12-31T19:26:18.375Z,5.50
2018-12-31T19:28:49.281Z,5.50
2018-12-31T19:31:20.026Z,5.60
2018-12-31T19:33:50.716Z,5.50
2018-12-31T19:36:21.723Z,5.60
2018-12-31T19:38:52.448Z,5.60
2018-12-31T19:41:23.124Z,5.50
2018-12-31T19:43:53.899Z,5.60
2018-12-31T19:46:24.624Z,5.60
2018-12-31T19:48:55.242Z,5.60
2018-12-31T19:51:25.907Z,5.60
2018-12-31T19:53:56.619Z,5.70
2018-12-31T19:56:27.371Z,5.70
2018-12-31T19:58:58.633Z,5.60
2018-12-31T20:01:29.318Z,5.70
2018-12-31T20:03:59.993Z,5.70
2018-12-31T20:06:30.720Z,5.60
2018-12-31T20:09:02.093Z,5.60
2018-12-31T20:11:33.008Z,5.60
2018-12-31T20:14:03.835Z,5.60
2018-12-31T20:16:34.522Z,5.60
2018-12-31T20:19:05.301Z,5.60
2018-12-31T20:21:36.385Z,5.60
2018-12-31T20:24:07.210Z,5.60
2018-12-31T20:26:38.082Z,5.60
2018-12-31T20:29:08.811Z,5.60
2018-12-31T20:31:39.900Z,5.60
2018-12-31T20:34:10.883Z,5.60
2018-12-31T20:36:42.620Z,5.60
2018-12-31T20:39:13.502Z,5.70
2018-12-31T20:41:44.366Z,5.70
2018-12-31T20:44:15.121Z,5.70
2018-12-31T20:46:47.064Z,5.70
2018-12-31T20:49:17.889Z,5.70
2018-12-31T20:51:48.675Z,5.70
2018-12-31T20:54:19.448Z,5.80
2018-12-31T20:56:50.224Z,5.80
2018-12-31T20:59:20.997Z,5.90
2018-12-31T21:01:53.618Z,5.90
2018-12-31T21:04:25.964Z,5.90
2018-12-31T21:06:56.892Z,5.90
2018-12-31T21:09:28.847Z,5.90
2018-12-31T21:12:03.310Z,5.90
2018-12-31T21:14:34.015Z,5.90
2018-12-31T21:17:05.541Z,5.90
2018-12-31T21:19:36.844Z,6.00
2018-12-31T21:22:07.622Z,6.00
2018-12-31T21:24:38.875Z,6.00
2018-12-31T21:27:09.606Z,6.00
2018-12-31T21:29:40.261Z,6.00
2018-12-31T21:32:10.939Z,6.00
2018-12-31T21:34:43.418Z,6.00
2018-12-31T21:37:14.217Z,6.00
2018-12-31T21:39:45.278Z,6.00
2018-12-31T21:42:18.256Z,6.00
2018-12-31T21:44:49.070Z,6.00
2018-12-31T21:47:19.818Z,6.00
2018-12-31T21:49:50.968Z,6.10
2018-12-31T21:52:21.785Z,6.10
2018-12-31T21:54:52.577Z,6.00
2018-12-31T21:57:23.435Z,6.10
2018-12-31T21:59:54.160Z,6.10
2018-12-31T22:02:25.390Z,6.10
2018-12-31T22:04:59.651Z,6.20
2018-12-31T22:07:30.385Z,6.20
2018-12-31T22:10:01.171Z,6.20
2018-12-31T22:12:31.929Z,6.20
2018-12-31T22:15:02.763Z,6.20
2018-12-31T22:17:33.515Z,6.20
2018-12-31T22:20:04.230Z,6.20
2018-12-31T22:22:35.158Z,6.30
2018-12-31T22:25:06.310Z,6.30
2018-12-31T22:27:38.246Z,6.40
2018-12-31T22:30:10.551Z,6.40
2018-12-31T22:32:41.383Z,6.40
2018-12-31T22:35:12.066Z,6.40
2018-12-31T22:37:43.472Z,6.40
2018-12-31T22:40:14.235Z,6.50
2018-12-31T22:42:45.224Z,6.50
2018-12-31T22:45:15.883Z,6.50
2018-12-31T22:47:47.829Z,6.60
2018-12-31T22:50:18.545Z,6.60
2018-12-31T22:52:51.356Z,6.50
2018-12-31T22:55:22.568Z,6.60
2018-12-31T22:57:53.302Z,6.60
2018-12-31T23:00:28.958Z,6.60
2018-12-31T23:02:59.680Z,6.70
2018-12-31T23:05:34.247Z,6.70
2018-12-31T23:08:05.172Z,6.70
2018-12-31T23:10:36.686Z,6.70
2018-12-31T23:13:07.596Z,6.70
2018-12-31T23:15:40.256Z,6.70
2018-12-31T23:18:11.209Z,6.80
2018-12-31T23:20:42.541Z,6.80
2018-12-31T23:23:13.673Z,6.80
2018-12-31T23:25:45.120Z,6.90
2018-12-31T23:28:16.274Z,6.90
2018-12-31T23:30:47.536Z,6.90
2018-12-31T23:33:18.532Z,7.00
2018-12-31T23:35:52.268Z,7.00
2018-12-31T23:38:23.653Z,7.10
2018-12-31T23:40:54.601Z,7.10
2018-12-31T23:43:27.300Z,7.10
2018-12-31T23:45:58.564Z,7.10
2018-12-31T23:48:30.678Z,7.10
2018-12-31T23:51:01.707Z,7.20
2018-12-31T23:53:33.382Z,7.20
2018-12-31T23:56:04.344Z,7.30
2018-12-31T23:58:35.183Z,7.30
